sensor_id;sensor_type;location;lat;lon;timestamp;P1;durP1;ratioP1;P2;durP2;ratioP2
57241;SDS011;43095;53.302;5.786;2023-05-28T00:01:24;22.95;;;7.97;;
57241;SDS011;43095;53.302;5.786;2023-05-28T00:03:51;25.50;;;8.50;;
57241;SDS011;43095;53.302;5.786;2023-05-28T00:06:18;21.70;;;7.40;;
57241;SDS011;43095;53.302;5.786;2023-05-28T00:08:44;30.48;;;9.32;;
57241;SDS011;43095;53.302;5.786;2023-05-28T00:11:11;24.90;;;7.55;;
57241;SDS011;43095;53.302;5.786;2023-05-28T00:13:38;23.92;;;8.30;;
57241;SDS011;43095;53.302;5.786;2023-05-28T00:16:05;17.88;;;7.85;;
57241;SDS011;43095;53.302;5.786;2023-05-28T00:18:32;25.25;;;8.05;;
57241;SDS011;43095;53.302;5.786;2023-05-28T00:20:59;21.25;;;7.90;;
57241;SDS011;43095;53.302;5.786;2023-05-28T00:23:27;22.85;;;9.02;;
57241;SDS011;43095;53.302;5.786;2023-05-28T00:25:55;25.73;;;8.80;;
57241;SDS011;43095;53.302;5.786;2023-05-28T00:28:22;20.27;;;8.07;;
57241;SDS011;43095;53.302;5.786;2023-05-28T00:30:49;23.95;;;8.73;;
57241;SDS011;43095;53.302;5.786;2023-05-28T00:33:15;18.75;;;7.20;;
57241;SDS011;43095;53.302;5.786;2023-05-28T00:35:42;21.23;;;8.10;;
57241;SDS011;43095;53.302;5.786;2023-05-28T00:38:09;23.25;;;8.38;;
57241;SDS011;43095;53.302;5.786;2023-05-28T00:40:36;25.20;;;8.27;;
57241;SDS011;43095;53.302;5.786;2023-05-28T00:43:02;26.05;;;8.52;;
57241;SDS011;43095;53.302;5.786;2023-05-28T00:45:29;23.25;;;8.45;;
57241;SDS011;43095;53.302;5.786;2023-05-28T00:47:57;29.95;;;9.13;;
57241;SDS011;43095;53.302;5.786;2023-05-28T00:50:24;28.80;;;7.97;;
57241;SDS011;43095;53.302;5.786;2023-05-28T00:52:53;24.35;;;9.80;;
57241;SDS011;43095;53.302;5.786;2023-05-28T00:55:20;25.40;;;9.60;;
57241;SDS011;43095;53.302;5.786;2023-05-28T00:57:46;28.90;;;13.32;;
57241;SDS011;43095;53.302;5.786;2023-05-28T01:00:15;24.48;;;13.13;;
57241;SDS011;43095;53.302;5.786;2023-05-28T01:02:43;35.38;;;15.15;;
57241;SDS011;43095;53.302;5.786;2023-05-28T01:05:09;37.05;;;15.20;;
57241;SDS011;43095;53.302;5.786;2023-05-28T01:07:36;34.20;;;15.40;;
57241;SDS011;43095;53.302;5.786;2023-05-28T01:10:03;29.08;;;14.52;;
57241;SDS011;43095;53.302;5.786;2023-05-28T01:12:31;35.97;;;16.02;;
57241;SDS011;43095;53.302;5.786;2023-05-28T01:15:01;37.67;;;16.98;;
57241;SDS011;43095;53.302;5.786;2023-05-28T01:17:28;33.30;;;16.77;;
57241;SDS011;43095;53.302;5.786;2023-05-28T01:19:59;31.98;;;15.27;;
57241;SDS011;43095;53.302;5.786;2023-05-28T01:22:37;36.42;;;16.65;;
57241;SDS011;43095;53.302;5.786;2023-05-28T01:25:08;34.13;;;17.10;;
57241;SDS011;43095;53.302;5.786;2023-05-28T01:27:41;37.75;;;17.55;;
57241;SDS011;43095;53.302;5.786;2023-05-28T01:30:08;34.80;;;17.45;;
57241;SDS011;43095;53.302;5.786;2023-05-28T01:32:40;34.97;;;16.42;;
57241;SDS011;43095;53.302;5.786;2023-05-28T01:35:07;35.40;;;14.68;;
57241;SDS011;43095;53.302;5.786;2023-05-28T01:37:40;29.15;;;16.27;;
57241;SDS011;43095;53.302;5.786;2023-05-28T01:40:12;28.23;;;14.70;;
57241;SDS011;43095;53.302;5.786;2023-05-28T01:42:40;36.47;;;14.35;;
57241;SDS011;43095;53.302;5.786;2023-05-28T01:45:08;37.28;;;13.82;;
57241;SDS011;43095;53.302;5.786;2023-05-28T01:47:37;28.95;;;12.35;;
57241;SDS011;43095;53.302;5.786;2023-05-28T01:50:04;34.13;;;13.45;;
57241;SDS011;43095;53.302;5.786;2023-05-28T01:52:32;33.47;;;14.70;;
57241;SDS011;43095;53.302;5.786;2023-05-28T01:54:59;32.95;;;15.07;;
57241;SDS011;43095;53.302;5.786;2023-05-28T01:57:25;33.65;;;14.35;;
57241;SDS011;43095;53.302;5.786;2023-05-28T01:59:52;28.48;;;13.38;;
57241;SDS011;43095;53.302;5.786;2023-05-28T02:02:19;35.20;;;15.25;;
57241;SDS011;43095;53.302;5.786;2023-05-28T02:04:49;30.55;;;13.00;;
57241;SDS011;43095;53.302;5.786;2023-05-28T02:07:16;29.73;;;13.60;;
57241;SDS011;43095;53.302;5.786;2023-05-28T02:09:43;26.73;;;13.88;;
57241;SDS011;43095;53.302;5.786;2023-05-28T02:12:11;34.10;;;12.85;;
57241;SDS011;43095;53.302;5.786;2023-05-28T02:14:38;36.83;;;14.82;;
57241;SDS011;43095;53.302;5.786;2023-05-28T02:17:04;28.83;;;13.75;;
57241;SDS011;43095;53.302;5.786;2023-05-28T02:19:31;30.90;;;13.63;;
57241;SDS011;43095;53.302;5.786;2023-05-28T02:21:59;34.78;;;15.73;;
57241;SDS011;43095;53.302;5.786;2023-05-28T02:24:26;33.35;;;14.90;;
57241;SDS011;43095;53.302;5.786;2023-05-28T02:26:53;28.75;;;15.07;;
57241;SDS011;43095;53.302;5.786;2023-05-28T02:29:20;34.08;;;15.57;;
57241;SDS011;43095;53.302;5.786;2023-05-28T02:31:47;37.42;;;16.38;;
57241;SDS011;43095;53.302;5.786;2023-05-28T02:34:13;37.95;;;16.30;;
57241;SDS011;43095;53.302;5.786;2023-05-28T02:36:41;41.40;;;16.50;;
57241;SDS011;43095;53.302;5.786;2023-05-28T02:39:07;36.13;;;17.15;;
57241;SDS011;43095;53.302;5.786;2023-05-28T02:41:38;34.20;;;16.60;;
57241;SDS011;43095;53.302;5.786;2023-05-28T02:44:05;32.80;;;17.55;;
57241;SDS011;43095;53.302;5.786;2023-05-28T02:46:32;30.42;;;16.15;;
57241;SDS011;43095;53.302;5.786;2023-05-28T02:49:01;34.85;;;15.90;;
57241;SDS011;43095;53.302;5.786;2023-05-28T02:51:28;35.13;;;17.00;;
57241;SDS011;43095;53.302;5.786;2023-05-28T02:54:30;39.42;;;18.48;;
57241;SDS011;43095;53.302;5.786;2023-05-28T02:56:59;42.85;;;18.73;;
57241;SDS011;43095;53.302;5.786;2023-05-28T02:59:26;37.80;;;16.45;;
57241;SDS011;43095;53.302;5.786;2023-05-28T03:01:53;31.92;;;16.42;;
57241;SDS011;43095;53.302;5.786;2023-05-28T03:04:20;39.75;;;16.85;;
57241;SDS011;43095;53.302;5.786;2023-05-28T03:06:47;38.88;;;17.08;;
57241;SDS011;43095;53.302;5.786;2023-05-28T03:09:14;36.13;;;16.35;;
57241;SDS011;43095;53.302;5.786;2023-05-28T03:11:42;38.17;;;16.38;;
57241;SDS011;43095;53.302;5.786;2023-05-28T03:14:10;37.28;;;14.88;;
57241;SDS011;43095;53.302;5.786;2023-05-28T03:16:37;32.05;;;15.90;;
57241;SDS011;43095;53.302;5.786;2023-05-28T03:19:11;35.58;;;15.93;;
57241;SDS011;43095;53.302;5.786;2023-05-28T03:21:39;39.80;;;16.05;;
57241;SDS011;43095;53.302;5.786;2023-05-28T03:24:08;35.72;;;16.88;;
57241;SDS011;43095;53.302;5.786;2023-05-28T03:26:45;41.40;;;17.42;;
57241;SDS011;43095;53.302;5.786;2023-05-28T03:29:19;40.65;;;19.88;;
57241;SDS011;43095;53.302;5.786;2023-05-28T03:31:57;38.42;;;16.92;;
57241;SDS011;43095;53.302;5.786;2023-05-28T03:34:25;39.60;;;18.35;;
57241;SDS011;43095;53.302;5.786;2023-05-28T03:36:51;35.65;;;17.10;;
57241;SDS011;43095;53.302;5.786;2023-05-28T03:39:18;41.15;;;16.80;;
57241;SDS011;43095;53.302;5.786;2023-05-28T03:41:49;33.78;;;17.75;;
57241;SDS011;43095;53.302;5.786;2023-05-28T03:44:18;36.70;;;16.67;;
57241;SDS011;43095;53.302;5.786;2023-05-28T03:46:46;35.92;;;16.77;;
57241;SDS011;43095;53.302;5.786;2023-05-28T03:49:13;40.30;;;17.30;;
57241;SDS011;43095;53.302;5.786;2023-05-28T03:51:40;37.58;;;16.70;;
57241;SDS011;43095;53.302;5.786;2023-05-28T03:54:09;34.10;;;17.00;;
57241;SDS011;43095;53.302;5.786;2023-05-28T03:56:36;33.83;;;15.65;;
57241;SDS011;43095;53.302;5.786;2023-05-28T03:59:04;39.65;;;14.98;;
57241;SDS011;43095;53.302;5.786;2023-05-28T04:01:33;42.10;;;16.30;;
57241;SDS011;43095;53.302;5.786;2023-05-28T04:04:04;31.40;;;13.68;;
57241;SDS011;43095;53.302;5.786;2023-05-28T04:06:32;30.27;;;13.27;;
57241;SDS011;43095;53.302;5.786;2023-05-28T04:08:59;36.28;;;13.82;;
57241;SDS011;43095;53.302;5.786;2023-05-28T04:11:26;36.22;;;14.18;;
57241;SDS011;43095;53.302;5.786;2023-05-28T04:13:56;31.50;;;12.52;;
57241;SDS011;43095;53.302;5.786;2023-05-28T04:16:23;29.13;;;13.13;;
57241;SDS011;43095;53.302;5.786;2023-05-28T04:18:50;37.03;;;13.98;;
57241;SDS011;43095;53.302;5.786;2023-05-28T04:21:18;33.00;;;13.52;;
57241;SDS011;43095;53.302;5.786;2023-05-28T04:23:47;37.92;;;14.90;;
57241;SDS011;43095;53.302;5.786;2023-05-28T04:26:16;32.35;;;14.25;;
57241;SDS011;43095;53.302;5.786;2023-05-28T04:28:43;30.95;;;14.27;;
57241;SDS011;43095;53.302;5.786;2023-05-28T04:31:10;36.17;;;14.02;;
57241;SDS011;43095;53.302;5.786;2023-05-28T04:33:36;34.45;;;13.38;;
57241;SDS011;43095;53.302;5.786;2023-05-28T04:36:03;29.10;;;12.55;;
57241;SDS011;43095;53.302;5.786;2023-05-28T04:38:31;30.83;;;13.25;;
57241;SDS011;43095;53.302;5.786;2023-05-28T04:41:01;27.27;;;12.07;;
57241;SDS011;43095;53.302;5.786;2023-05-28T04:43:30;25.45;;;11.75;;
57241;SDS011;43095;53.302;5.786;2023-05-28T04:45:57;27.55;;;10.65;;
57241;SDS011;43095;53.302;5.786;2023-05-28T04:48:25;26.75;;;10.60;;
57241;SDS011;43095;53.302;5.786;2023-05-28T04:50:52;24.50;;;9.38;;
57241;SDS011;43095;53.302;5.786;2023-05-28T04:53:20;28.20;;;10.15;;
57241;SDS011;43095;53.302;5.786;2023-05-28T04:55:47;25.05;;;9.18;;
57241;SDS011;43095;53.302;5.786;2023-05-28T04:58:14;22.98;;;8.38;;
57241;SDS011;43095;53.302;5.786;2023-05-28T05:00:41;26.55;;;8.30;;
57241;SDS011;43095;53.302;5.786;2023-05-28T05:03:08;26.00;;;8.43;;
57241;SDS011;43095;53.302;5.786;2023-05-28T05:05:36;25.02;;;8.73;;
57241;SDS011;43095;53.302;5.786;2023-05-28T05:08:05;23.45;;;8.52;;
57241;SDS011;43095;53.302;5.786;2023-05-28T05:10:32;19.55;;;8.02;;
57241;SDS011;43095;53.302;5.786;2023-05-28T05:12:59;20.63;;;7.20;;
57241;SDS011;43095;53.302;5.786;2023-05-28T05:15:27;23.33;;;7.28;;
57241;SDS011;43095;53.302;5.786;2023-05-28T05:17:54;19.80;;;7.55;;
57241;SDS011;43095;53.302;5.786;2023-05-28T05:20:22;24.15;;;8.98;;
57241;SDS011;43095;53.302;5.786;2023-05-28T05:22:49;19.52;;;7.50;;
57241;SDS011;43095;53.302;5.786;2023-05-28T05:25:16;19.25;;;7.38;;
57241;SDS011;43095;53.302;5.786;2023-05-28T05:27:43;22.00;;;7.97;;
57241;SDS011;43095;53.302;5.786;2023-05-28T05:30:10;21.10;;;7.45;;
57241;SDS011;43095;53.302;5.786;2023-05-28T05:32:37;18.27;;;6.55;;
57241;SDS011;43095;53.302;5.786;2023-05-28T05:35:04;18.88;;;6.47;;
57241;SDS011;43095;53.302;5.786;2023-05-28T05:37:51;27.10;;;6.40;;
57241;SDS011;43095;53.302;5.786;2023-05-28T05:40:26;13.32;;;5.10;;
57241;SDS011;43095;53.302;5.786;2023-05-28T05:43:03;29.92;;;5.68;;
57241;SDS011;43095;53.302;5.786;2023-05-28T05:45:29;20.73;;;6.10;;
57241;SDS011;43095;53.302;5.786;2023-05-28T05:47:56;17.42;;;5.85;;
57241;SDS011;43095;53.302;5.786;2023-05-28T05:50:23;25.23;;;6.57;;
57241;SDS011;43095;53.302;5.786;2023-05-28T05:52:50;19.80;;;6.28;;
57241;SDS011;43095;53.302;5.786;2023-05-28T05:55:17;16.20;;;5.53;;
57241;SDS011;43095;53.302;5.786;2023-05-28T05:57:44;19.35;;;6.18;;
57241;SDS011;43095;53.302;5.786;2023-05-28T06:00:12;24.63;;;7.07;;
57241;SDS011;43095;53.302;5.786;2023-05-28T06:02:39;23.15;;;8.35;;
57241;SDS011;43095;53.302;5.786;2023-05-28T06:05:32;19.92;;;7.82;;
57241;SDS011;43095;53.302;5.786;2023-05-28T06:08:13;16.92;;;6.55;;
57241;SDS011;43095;53.302;5.786;2023-05-28T06:10:59;21.45;;;6.22;;
57241;SDS011;43095;53.302;5.786;2023-05-28T06:13:26;24.67;;;7.45;;
57241;SDS011;43095;53.302;5.786;2023-05-28T06:15:53;18.98;;;6.85;;
57241;SDS011;43095;53.302;5.786;2023-05-28T06:18:21;15.40;;;4.97;;
57241;SDS011;43095;53.302;5.786;2023-05-28T06:20:50;17.05;;;4.00;;
57241;SDS011;43095;53.302;5.786;2023-05-28T06:23:17;15.10;;;4.95;;
57241;SDS011;43095;53.302;5.786;2023-05-28T06:25:45;17.42;;;5.55;;
57241;SDS011;43095;53.302;5.786;2023-05-28T06:28:11;20.00;;;5.50;;
57241;SDS011;43095;53.302;5.786;2023-05-28T06:30:38;12.63;;;5.05;;
57241;SDS011;43095;53.302;5.786;2023-05-28T06:33:07;23.00;;;6.38;;
57241;SDS011;43095;53.302;5.786;2023-05-28T06:35:35;15.80;;;4.68;;
57241;SDS011;43095;53.302;5.786;2023-05-28T06:38:03;17.40;;;4.90;;
57241;SDS011;43095;53.302;5.786;2023-05-28T06:40:32;14.32;;;5.53;;
57241;SDS011;43095;53.302;5.786;2023-05-28T06:42:59;15.48;;;4.43;;
57241;SDS011;43095;53.302;5.786;2023-05-28T06:45:33;12.43;;;4.28;;
57241;SDS011;43095;53.302;5.786;2023-05-28T06:48:02;13.07;;;4.57;;
57241;SDS011;43095;53.302;5.786;2023-05-28T06:50:30;14.02;;;4.13;;
57241;SDS011;43095;53.302;5.786;2023-05-28T06:52:57;8.70;;;3.42;;
57241;SDS011;43095;53.302;5.786;2023-05-28T06:55:24;10.95;;;3.85;;
57241;SDS011;43095;53.302;5.786;2023-05-28T06:58:11;17.38;;;4.28;;
57241;SDS011;43095;53.302;5.786;2023-05-28T07:00:57;13.00;;;4.30;;
57241;SDS011;43095;53.302;5.786;2023-05-28T07:03:53;12.40;;;3.40;;
57241;SDS011;43095;53.302;5.786;2023-05-28T07:06:30;11.10;;;3.38;;
57241;SDS011;43095;53.302;5.786;2023-05-28T07:08:57;10.32;;;3.88;;
57241;SDS011;43095;53.302;5.786;2023-05-28T07:11:24;12.35;;;3.75;;
57241;SDS011;43095;53.302;5.786;2023-05-28T07:13:52;10.65;;;4.15;;
57241;SDS011;43095;53.302;5.786;2023-05-28T07:16:23;11.02;;;4.60;;
57241;SDS011;43095;53.302;5.786;2023-05-28T07:18:50;13.50;;;4.88;;
57241;SDS011;43095;53.302;5.786;2023-05-28T07:21:17;11.32;;;4.28;;
57241;SDS011;43095;53.302;5.786;2023-05-28T07:23:45;12.82;;;4.28;;
57241;SDS011;43095;53.302;5.786;2023-05-28T07:26:13;11.15;;;4.35;;
57241;SDS011;43095;53.302;5.786;2023-05-28T07:28:39;16.85;;;5.25;;
57241;SDS011;43095;53.302;5.786;2023-05-28T07:31:07;14.52;;;5.72;;
57241;SDS011;43095;53.302;5.786;2023-05-28T07:33:34;15.60;;;5.30;;
57241;SDS011;43095;53.302;5.786;2023-05-28T07:36:02;17.58;;;5.07;;
57241;SDS011;43095;53.302;5.786;2023-05-28T07:38:30;22.95;;;6.45;;
57241;SDS011;43095;53.302;5.786;2023-05-28T07:40:59;17.42;;;5.57;;
57241;SDS011;43095;53.302;5.786;2023-05-28T07:46:03;18.10;;;5.78;;
57241;SDS011;43095;53.302;5.786;2023-05-28T07:48:38;13.98;;;5.72;;
57241;SDS011;43095;53.302;5.786;2023-05-28T07:51:16;14.57;;;5.47;;
57241;SDS011;43095;53.302;5.786;2023-05-28T07:53:57;14.85;;;4.82;;
57241;SDS011;43095;53.302;5.786;2023-05-28T07:56:23;13.40;;;4.45;;
57241;SDS011;43095;53.302;5.786;2023-05-28T07:58:52;16.30;;;5.38;;
57241;SDS011;43095;53.302;5.786;2023-05-28T08:01:19;12.40;;;4.80;;
57241;SDS011;43095;53.302;5.786;2023-05-28T08:03:50;15.95;;;5.85;;
57241;SDS011;43095;53.302;5.786;2023-05-28T08:06:20;13.70;;;4.68;;
57241;SDS011;43095;53.302;5.786;2023-05-28T08:08:48;14.32;;;5.43;;
57241;SDS011;43095;53.302;5.786;2023-05-28T08:11:15;15.18;;;5.90;;
57241;SDS011;43095;53.302;5.786;2023-05-28T08:13:42;13.13;;;5.00;;
57241;SDS011;43095;53.302;5.786;2023-05-28T08:16:10;15.32;;;5.25;;
57241;SDS011;43095;53.302;5.786;2023-05-28T08:19:01;12.32;;;5.10;;
57241;SDS011;43095;53.302;5.786;2023-05-28T08:21:28;11.50;;;5.20;;
57241;SDS011;43095;53.302;5.786;2023-05-28T08:23:55;16.42;;;6.72;;
57241;SDS011;43095;53.302;5.786;2023-05-28T08:26:22;14.05;;;5.80;;
57241;SDS011;43095;53.302;5.786;2023-05-28T08:28:49;13.85;;;6.10;;
57241;SDS011;43095;53.302;5.786;2023-05-28T08:31:16;13.57;;;5.43;;
57241;SDS011;43095;53.302;5.786;2023-05-28T08:34:00;12.13;;;6.10;;
57241;SDS011;43095;53.302;5.786;2023-05-28T08:36:28;12.32;;;5.13;;
57241;SDS011;43095;53.302;5.786;2023-05-28T08:38:56;12.25;;;5.93;;
57241;SDS011;43095;53.302;5.786;2023-05-28T08:41:24;12.07;;;5.40;;
57241;SDS011;43095;53.302;5.786;2023-05-28T08:43:53;13.80;;;6.10;;
57241;SDS011;43095;53.302;5.786;2023-05-28T08:46:20;13.55;;;6.28;;
57241;SDS011;43095;53.302;5.786;2023-05-28T08:49:07;12.32;;;6.90;;
57241;SDS011;43095;53.302;5.786;2023-05-28T08:51:35;13.18;;;6.70;;
57241;SDS011;43095;53.302;5.786;2023-05-28T08:54:03;15.23;;;6.18;;
57241;SDS011;43095;53.302;5.786;2023-05-28T08:56:31;15.40;;;7.43;;
57241;SDS011;43095;53.302;5.786;2023-05-28T08:58:58;11.43;;;6.15;;
57241;SDS011;43095;53.302;5.786;2023-05-28T09:01:28;14.10;;;5.88;;
57241;SDS011;43095;53.302;5.786;2023-05-28T09:04:06;10.45;;;5.88;;
57241;SDS011;43095;53.302;5.786;2023-05-28T09:06:39;13.70;;;5.88;;
57241;SDS011;43095;53.302;5.786;2023-05-28T09:09:13;11.35;;;5.72;;
57241;SDS011;43095;53.302;5.786;2023-05-28T09:11:46;11.38;;;5.38;;
57241;SDS011;43095;53.302;5.786;2023-05-28T09:14:15;12.65;;;5.60;;
57241;SDS011;43095;53.302;5.786;2023-05-28T09:16:43;10.70;;;5.65;;
57241;SDS011;43095;53.302;5.786;2023-05-28T09:19:20;9.77;;;4.93;;
57241;SDS011;43095;53.302;5.786;2023-05-28T09:21:54;11.20;;;5.13;;
57241;SDS011;43095;53.302;5.786;2023-05-28T09:24:27;9.30;;;4.85;;
57241;SDS011;43095;53.302;5.786;2023-05-28T09:27:19;8.68;;;4.32;;
57241;SDS011;43095;53.302;5.786;2023-05-28T09:29:47;9.98;;;4.63;;
57241;SDS011;43095;53.302;5.786;2023-05-28T09:32:18;10.45;;;4.43;;
57241;SDS011;43095;53.302;5.786;2023-05-28T09:34:48;10.73;;;4.47;;
57241;SDS011;43095;53.302;5.786;2023-05-28T09:37:16;8.02;;;3.60;;
57241;SDS011;43095;53.302;5.786;2023-05-28T09:39:46;9.05;;;4.05;;
57241;SDS011;43095;53.302;5.786;2023-05-28T09:42:14;7.35;;;3.63;;
57241;SDS011;43095;53.302;5.786;2023-05-28T09:44:41;9.93;;;3.60;;
57241;SDS011;43095;53.302;5.786;2023-05-28T09:47:13;8.02;;;4.05;;
57241;SDS011;43095;53.302;5.786;2023-05-28T09:49:43;9.05;;;3.38;;
57241;SDS011;43095;53.302;5.786;2023-05-28T09:52:16;7.15;;;3.67;;
57241;SDS011;43095;53.302;5.786;2023-05-28T09:54:51;8.05;;;3.53;;
57241;SDS011;43095;53.302;5.786;2023-05-28T09:57:26;9.38;;;3.90;;
57241;SDS011;43095;53.302;5.786;2023-05-28T09:59:56;9.23;;;4.40;;
57241;SDS011;43095;53.302;5.786;2023-05-28T10:02:38;12.15;;;4.32;;
57241;SDS011;43095;53.302;5.786;2023-05-28T10:05:13;10.60;;;4.88;;
57241;SDS011;43095;53.302;5.786;2023-05-28T10:07:43;12.48;;;4.60;;
57241;SDS011;43095;53.302;5.786;2023-05-28T10:10:13;12.32;;;5.00;;
57241;SDS011;43095;53.302;5.786;2023-05-28T10:12:40;13.73;;;4.78;;
57241;SDS011;43095;53.302;5.786;2023-05-28T10:15:07;9.93;;;4.50;;
57241;SDS011;43095;53.302;5.786;2023-05-28T10:17:34;13.40;;;4.90;;
57241;SDS011;43095;53.302;5.786;2023-05-28T10:20:02;14.48;;;4.75;;
57241;SDS011;43095;53.302;5.786;2023-05-28T10:22:31;10.90;;;4.63;;
57241;SDS011;43095;53.302;5.786;2023-05-28T10:24:58;12.77;;;4.90;;
57241;SDS011;43095;53.302;5.786;2023-05-28T10:27:30;10.98;;;5.28;;
57241;SDS011;43095;53.302;5.786;2023-05-28T10:30:03;11.63;;;5.18;;
57241;SDS011;43095;53.302;5.786;2023-05-28T10:32:37;14.85;;;5.45;;
57241;SDS011;43095;53.302;5.786;2023-05-28T10:35:05;11.68;;;4.90;;
57241;SDS011;43095;53.302;5.786;2023-05-28T10:37:35;10.90;;;5.00;;
57241;SDS011;43095;53.302;5.786;2023-05-28T10:40:02;13.50;;;4.30;;
57241;SDS011;43095;53.302;5.786;2023-05-28T10:42:29;10.02;;;4.28;;
57241;SDS011;43095;53.302;5.786;2023-05-28T10:47:39;10.00;;;3.80;;
57241;SDS011;43095;53.302;5.786;2023-05-28T10:52:41;13.43;;;4.40;;
57241;SDS011;43095;53.302;5.786;2023-05-28T10:55:10;11.45;;;4.18;;
57241;SDS011;43095;53.302;5.786;2023-05-28T10:57:42;9.18;;;3.95;;
57241;SDS011;43095;53.302;5.786;2023-05-28T11:00:23;10.48;;;3.95;;
57241;SDS011;43095;53.302;5.786;2023-05-28T11:02:51;9.80;;;3.88;;
57241;SDS011;43095;53.302;5.786;2023-05-28T11:05:24;9.23;;;3.75;;
57241;SDS011;43095;53.302;5.786;2023-05-28T11:07:52;9.25;;;3.58;;
57241;SDS011;43095;53.302;5.786;2023-05-28T11:10:21;15.43;;;3.90;;
57241;SDS011;43095;53.302;5.786;2023-05-28T11:12:48;7.97;;;3.30;;
57241;SDS011;43095;53.302;5.786;2023-05-28T11:15:16;10.20;;;3.10;;
57241;SDS011;43095;53.302;5.786;2023-05-28T11:17:44;10.70;;;3.55;;
57241;SDS011;43095;53.302;5.786;2023-05-28T11:22:43;8.98;;;3.47;;
57241;SDS011;43095;53.302;5.786;2023-05-28T11:25:10;9.90;;;3.65;;
57241;SDS011;43095;53.302;5.786;2023-05-28T11:27:38;11.32;;;3.83;;
57241;SDS011;43095;53.302;5.786;2023-05-28T11:30:07;9.30;;;3.65;;
57241;SDS011;43095;53.302;5.786;2023-05-28T11:32:38;11.93;;;4.85;;
57241;SDS011;43095;53.302;5.786;2023-05-28T11:35:06;12.68;;;4.50;;
57241;SDS011;43095;53.302;5.786;2023-05-28T11:37:35;12.35;;;4.00;;
57241;SDS011;43095;53.302;5.786;2023-05-28T11:40:03;12.60;;;4.82;;
57241;SDS011;43095;53.302;5.786;2023-05-28T11:42:32;14.30;;;4.85;;
57241;SDS011;43095;53.302;5.786;2023-05-28T11:44:59;15.07;;;5.03;;
57241;SDS011;43095;53.302;5.786;2023-05-28T11:47:26;9.75;;;4.95;;
57241;SDS011;43095;53.302;5.786;2023-05-28T11:49:53;16.05;;;4.47;;
57241;SDS011;43095;53.302;5.786;2023-05-28T11:52:21;14.18;;;4.30;;
57241;SDS011;43095;53.302;5.786;2023-05-28T11:54:54;13.13;;;4.95;;
57241;SDS011;43095;53.302;5.786;2023-05-28T11:57:26;16.60;;;5.03;;
57241;SDS011;43095;53.302;5.786;2023-05-28T12:02:41;12.23;;;3.85;;
57241;SDS011;43095;53.302;5.786;2023-05-28T12:05:13;11.70;;;4.72;;
57241;SDS011;43095;53.302;5.786;2023-05-28T12:07:47;12.57;;;4.45;;
57241;SDS011;43095;53.302;5.786;2023-05-28T12:10:16;14.65;;;4.45;;
57241;SDS011;43095;53.302;5.786;2023-05-28T12:12:47;12.88;;;4.22;;
57241;SDS011;43095;53.302;5.786;2023-05-28T12:15:22;12.93;;;3.40;;
57241;SDS011;43095;53.302;5.786;2023-05-28T12:17:54;13.80;;;4.28;;
57241;SDS011;43095;53.302;5.786;2023-05-28T12:23:08;14.38;;;5.18;;
57241;SDS011;43095;53.302;5.786;2023-05-28T12:28:10;11.50;;;4.78;;
57241;SDS011;43095;53.302;5.786;2023-05-28T12:30:37;13.70;;;4.15;;
57241;SDS011;43095;53.302;5.786;2023-05-28T12:33:05;18.67;;;4.68;;
57241;SDS011;43095;53.302;5.786;2023-05-28T12:35:32;12.40;;;4.78;;
57241;SDS011;43095;53.302;5.786;2023-05-28T12:37:58;12.93;;;4.05;;
57241;SDS011;43095;53.302;5.786;2023-05-28T12:40:25;13.93;;;5.15;;
57241;SDS011;43095;53.302;5.786;2023-05-28T12:42:52;15.43;;;4.25;;
57241;SDS011;43095;53.302;5.786;2023-05-28T12:45:19;10.88;;;5.05;;
57241;SDS011;43095;53.302;5.786;2023-05-28T12:47:46;13.20;;;4.30;;
57241;SDS011;43095;53.302;5.786;2023-05-28T12:50:13;15.25;;;4.55;;
57241;SDS011;43095;53.302;5.786;2023-05-28T12:52:39;13.25;;;4.07;;
57241;SDS011;43095;53.302;5.786;2023-05-28T12:55:07;13.55;;;4.72;;
57241;SDS011;43095;53.302;5.786;2023-05-28T12:57:40;13.23;;;4.43;;
57241;SDS011;43095;53.302;5.786;2023-05-28T13:00:09;11.15;;;4.20;;
57241;SDS011;43095;53.302;5.786;2023-05-28T13:02:37;15.50;;;5.90;;
57241;SDS011;43095;53.302;5.786;2023-05-28T13:05:05;14.07;;;4.50;;
57241;SDS011;43095;53.302;5.786;2023-05-28T13:07:33;12.73;;;4.95;;
57241;SDS011;43095;53.302;5.786;2023-05-28T13:09:59;13.40;;;4.40;;
57241;SDS011;43095;53.302;5.786;2023-05-28T13:12:26;14.88;;;4.32;;
57241;SDS011;43095;53.302;5.786;2023-05-28T13:14:53;13.35;;;4.45;;
57241;SDS011;43095;53.302;5.786;2023-05-28T13:17:20;15.38;;;4.55;;
57241;SDS011;43095;53.302;5.786;2023-05-28T13:19:47;14.15;;;5.38;;
57241;SDS011;43095;53.302;5.786;2023-05-28T13:22:17;13.88;;;5.90;;
57241;SDS011;43095;53.302;5.786;2023-05-28T13:24:43;11.80;;;4.53;;
57241;SDS011;43095;53.302;5.786;2023-05-28T13:27:16;11.68;;;4.40;;
57241;SDS011;43095;53.302;5.786;2023-05-28T13:29:43;13.27;;;4.70;;
57241;SDS011;43095;53.302;5.786;2023-05-28T13:32:09;13.35;;;4.50;;
57241;SDS011;43095;53.302;5.786;2023-05-28T13:34:37;13.02;;;4.72;;
57241;SDS011;43095;53.302;5.786;2023-05-28T13:37:05;13.68;;;4.85;;
57241;SDS011;43095;53.302;5.786;2023-05-28T13:39:31;11.13;;;4.00;;
57241;SDS011;43095;53.302;5.786;2023-05-28T13:41:59;10.32;;;4.45;;
57241;SDS011;43095;53.302;5.786;2023-05-28T13:44:30;13.95;;;4.47;;
57241;SDS011;43095;53.302;5.786;2023-05-28T13:47:06;12.85;;;3.58;;
57241;SDS011;43095;53.302;5.786;2023-05-28T13:49:48;11.07;;;4.78;;
57241;SDS011;43095;53.302;5.786;2023-05-28T13:52:47;10.75;;;3.75;;
57241;SDS011;43095;53.302;5.786;2023-05-28T13:55:25;13.95;;;4.70;;
57241;SDS011;43095;53.302;5.786;2023-05-28T13:58:02;10.68;;;4.30;;
57241;SDS011;43095;53.302;5.786;2023-05-28T14:01:24;13.38;;;4.75;;
57241;SDS011;43095;53.302;5.786;2023-05-28T14:04:06;17.05;;;6.28;;
57241;SDS011;43095;53.302;5.786;2023-05-28T14:06:48;13.48;;;4.97;;
57241;SDS011;43095;53.302;5.786;2023-05-28T14:09:20;12.35;;;4.90;;
57241;SDS011;43095;53.302;5.786;2023-05-28T14:11:58;16.33;;;6.53;;
57241;SDS011;43095;53.302;5.786;2023-05-28T14:14:37;16.65;;;5.68;;
57241;SDS011;43095;53.302;5.786;2023-05-28T14:17:10;14.10;;;5.65;;
57241;SDS011;43095;53.302;5.786;2023-05-28T14:20:31;16.45;;;6.57;;
57241;SDS011;43095;53.302;5.786;2023-05-28T14:23:01;18.02;;;7.43;;
57241;SDS011;43095;53.302;5.786;2023-05-28T14:25:40;16.42;;;6.72;;
57241;SDS011;43095;53.302;5.786;2023-05-28T14:28:22;17.27;;;6.20;;
57241;SDS011;43095;53.302;5.786;2023-05-28T14:31:12;18.77;;;6.57;;
57241;SDS011;43095;53.302;5.786;2023-05-28T14:33:40;17.15;;;6.70;;
57241;SDS011;43095;53.302;5.786;2023-05-28T14:36:13;16.00;;;6.07;;
57241;SDS011;43095;53.302;5.786;2023-05-28T14:38:41;20.05;;;6.88;;
57241;SDS011;43095;53.302;5.786;2023-05-28T14:41:11;20.33;;;7.40;;
57241;SDS011;43095;53.302;5.786;2023-05-28T14:43:58;17.65;;;7.53;;
57241;SDS011;43095;53.302;5.786;2023-05-28T14:46:28;17.67;;;6.88;;
57241;SDS011;43095;53.302;5.786;2023-05-28T14:48:59;17.03;;;7.03;;
57241;SDS011;43095;53.302;5.786;2023-05-28T14:51:28;16.25;;;7.15;;
57241;SDS011;43095;53.302;5.786;2023-05-28T14:54:36;15.45;;;6.93;;
57241;SDS011;43095;53.302;5.786;2023-05-28T14:57:26;20.45;;;7.40;;
57241;SDS011;43095;53.302;5.786;2023-05-28T15:00:16;19.58;;;7.03;;
57241;SDS011;43095;53.302;5.786;2023-05-28T15:04:06;19.95;;;7.47;;
57241;SDS011;43095;53.302;5.786;2023-05-28T15:07:03;24.70;;;8.45;;
57241;SDS011;43095;53.302;5.786;2023-05-28T15:09:30;19.83;;;8.40;;